Time;durP1;ratioP1;P1;durP2;ratioP2;P2;SDS_P1;SDS_P2;PMS_P1;PMS_P2;Temp;Humidity;BMP_temperature;BMP_pressure;BME280_temperature;BME280_humidity;BME280_pressure;Samples;Min_cycle;Max_cycle;Signal;HPM_P1;HPM_P2
2022/11/15 00:12:40;;;;;;;20.37;11.57;;;;;;;5.17;80.67;101262.81;32028557;27;20062;-76
2022/11/15 00:27:42;;;;;;;20.47;11.30;;;;;;;5.06;81.01;101252.59;31993659;27;20047;-76
2022/11/15 00:42:45;;;;;;;21.60;11.10;;;;;;;5.05;80.54;101256.41;31983039;27;20177;-78
2022/11/15 00:57:47;;;;;;;24.23;11.10;;;;;;;5.05;81.06;101245.66;32023463;27;20050;-76
2022/11/15 01:12:49;;;;;;;19.90;10.43;;;;;;;5.04;80.47;101238.72;31988085;27;20109;-77
2022/11/15 01:27:52;;;;;;;21.63;10.93;;;;;;;5.03;80.55;101231.75;32006697;27;20046;-75
2022/11/15 01:42:53;;;;;;;22.23;9.97;;;;;;;5.19;79.99;101237.09;32013976;27;20083;-77
2022/11/15 01:57:59;;;;;;;22.93;11.43;;;;;;;5.21;78.79;101231.34;32016333;27;20107;-76
2022/11/15 02:13:03;;;;;;;31.77;12.10;;;;;;;5.10;77.61;101248.06;32022987;27;20133;-77
2022/11/15 02:28:47;;;;;;;28.47;13.10;;;;;;;4.74;79.62;101246.50;32003318;27;20126;-75
2022/11/15 02:43:56;;;;;;;26.60;10.83;;;;;;;4.72;80.39;101248.03;31911148;27;20078;-76
2022/11/15 02:59:35;;;;;;;29.47;10.67;;;;;;;4.78;79.80;101246.59;31986558;27;20082;-79
2022/11/15 03:15:04;;;;;;;18.97;11.03;;;;;;;4.58;78.59;101258.44;31857103;28;20047;-76
2022/11/15 03:30:08;;;;;;;17.80;9.30;;;;;;;4.70;79.19;101263.72;31847120;28;20051;-77
2022/11/15 03:45:22;;;;;;;22.47;10.93;;;;;;;4.61;80.79;101252.38;31856309;27;20051;-77
2022/11/15 04:00:24;;;;;;;23.37;11.03;;;;;;;4.51;82.17;101260.94;31882650;27;20050;-75
2022/11/15 04:15:26;;;;;;;25.43;11.90;;;;;;;4.15;83.62;101262.81;32016487;27;20471;-78
2022/11/15 04:30:28;;;;;;;29.57;14.53;;;;;;;3.62;86.32;101246.09;31988741;27;20046;-77
2022/11/15 04:45:30;;;;;;;28.30;13.87;;;;;;;3.49;83.12;101249.97;31989559;27;20575;-78
2022/11/15 05:00:32;;;;;;;35.47;17.87;;;;;;;3.25;86.17;101253.50;32005804;27;20141;-77
2022/11/15 05:15:36;;;;;;;27.57;19.73;;;;;;;3.36;82.71;101253.78;31986537;27;20043;-76
2022/11/15 05:30:38;;;;;;;26.23;17.93;;;;;;;3.48;81.62;101258.34;32009248;27;20145;-77
2022/11/15 05:45:40;;;;;;;25.83;15.70;;;;;;;6.00;74.62;101255.94;32024778;27;20133;-77
2022/11/15 06:00:43;;;;;;;26.50;14.67;;;;;;;8.54;61.92;101237.81;32020831;27;20050;-76
2022/11/15 06:15:45;;;;;;;24.47;15.30;;;;;;;10.01;53.55;101253.47;31996335;27;20077;-77
2022/11/15 06:30:47;;;;;;;27.77;14.17;;;;;;;11.48;50.65;101252.84;31998208;27;20050;-78
2022/11/15 06:45:53;;;;;;;18.40;12.07;;;;;;;12.64;45.33;101256.66;31977503;27;20130;-77
2022/11/15 07:01:01;;;;;;;16.90;8.20;;;;;;;13.04;45.48;101243.38;31984984;27;20055;-77
2022/11/15 07:16:08;;;;;;;12.43;6.73;;;;;;;13.42;43.31;101251.53;31957250;27;20532;-77
2022/11/15 07:31:10;;;;;;;15.50;7.10;;;;;;;11.48;46.25;101234.56;32002913;27;20123;-78
2022/11/15 07:46:12;;;;;;;13.53;7.70;;;;;;;14.18;41.70;101236.34;32001593;27;20054;-77
2022/11/15 08:01:14;;;;;;;25.93;10.93;;;;;;;15.21;37.79;101240.72;32012167;27;20397;-78
2022/11/15 08:16:16;;;;;;;11.97;6.63;;;;;;;15.24;39.92;101228.16;32003057;27;20093;-77
2022/11/15 08:31:18;;;;;;;24.50;12.20;;;;;;;15.59;37.22;101210.25;32011107;27;20058;-77
2022/11/15 08:46:20;;;;;;;9.87;6.23;;;;;;;15.42;38.30;101178.53;31991783;27;20054;-78
2022/11/15 09:01:22;;;;;;;10.03;4.80;;;;;;;15.49;37.18;101172.91;32011246;27;20051;-79
2022/11/15 09:16:24;;;;;;;7.17;4.20;;;;;;;15.98;36.84;101149.84;32008335;27;20473;-78
2022/11/15 09:31:29;;;;;;;10.33;5.30;;;;;;;15.80;34.46;101144.03;32008135;27;20431;-77
2022/11/15 09:47:06;;;;;;;4.40;2.60;;;;;;;16.37;32.79;101137.06;31976592;27;20540;-77
2022/11/15 10:02:08;;;;;;;7.73;3.10;;;;;;;16.75;33.70;101095.34;31996430;27;20051;-78
2022/11/15 10:17:16;;;;;;;6.23;2.80;;;;;;;16.56;33.20;101094.25;32006306;27;20047;-77
2022/11/15 10:32:20;;;;;;;4.17;2.37;;;;;;;16.43;33.47;101064.09;31988428;27;20047;-76
2022/11/15 10:47:31;;;;;;;3.50;1.90;;;;;;;16.25;33.64;101044.66;31978100;27;20049;-77
2022/11/15 11:02:56;;;;;;;3.40;2.23;;;;;;;14.61;35.80;101012.38;32008765;27;20062;-78
2022/11/15 11:18:09;;;;;;;3.87;2.17;;;;;;;14.26;37.47;100994.72;31999705;27;20050;-77
2022/11/15 11:33:32;;;;;;;5.77;2.43;;;;;;;15.00;35.79;100965.00;31988640;27;20051;-80
2022/11/15 11:48:40;;;;;;;3.10;2.30;;;;;;;16.82;32.42;100947.03;31997510;27;20055;-77
2022/11/15 12:04:15;;;;;;;4.20;2.30;;;;;;;17.77;31.77;100923.81;32016942;27;20051;-79
2022/11/15 12:19:17;;;;;;;4.00;2.23;;;;;;;18.05;32.95;100920.03;32013477;27;20169;-77
2022/11/15 12:34:22;;;;;;;20.83;10.40;;;;;;;12.43;39.40;100911.03;32013492;27;20534;-77
2022/11/15 12:49:27;;;;;;;5.77;2.67;;;;;;;10.45;43.13;100886.66;32008314;27;20050;-77
2022/11/15 13:04:30;;;;;;;6.13;2.83;;;;;;;9.83;46.50;100852.88;31945161;27;20059;-78
2022/11/15 13:19:32;;;;;;;7.50;4.53;;;;;;;9.61;46.65;100839.81;31849417;27;20047;-78
2022/11/15 13:34:35;;;;;;;4.07;3.00;;;;;;;9.58;48.15;100819.69;31874205;27;20051;-77
2022/11/15 13:49:57;;;;;;;6.07;2.90;;;;;;;9.39;48.68;100795.75;31857075;27;20051;-76
2022/11/15 14:05:25;;;;;;;5.87;2.60;;;;;;;9.21;50.58;100790.41;31907252;27;20078;-78
2022/11/15 14:20:31;;;;;;;6.97;3.57;;;;;;;9.10;50.50;100760.63;31988995;27;20119;-77
2022/11/15 14:35:38;;;;;;;6.20;3.53;;;;;;;8.67;51.92;100735.59;31986186;27;20054;-77
2022/11/15 14:50:40;;;;;;;6.73;3.30;;;;;;;8.43;52.89;100710.13;31991359;27;20136;-77
2022/11/15 15:05:43;;;;;;;4.80;2.97;;;;;;;8.35;54.63;100686.94;32000633;27;20063;-77
2022/11/15 15:20:57;;;;;;;7.27;3.70;;;;;;;8.36;56.48;100677.66;31985035;27;20061;-77
2022/11/15 15:35:59;;;;;;;10.30;4.93;;;;;;;8.05;57.44;100668.38;31996024;27;20484;-78
2022/11/15 15:51:01;;;;;;;13.90;6.77;;;;;;;7.94;57.51;100656.03;32004692;27;20051;-77
2022/11/15 16:06:46;;;;;;;17.70;6.87;;;;;;;7.84;58.76;100641.34;32006791;27;20070;-78
2022/11/15 16:21:48;;;;;;;;;;;;;;;7.78;60.37;100630.19;31973631;27;20400;-78
2022/11/15 16:36:51;;;;;;;13.43;6.17;;;;;;;7.48;63.34;100635.94;32008344;27;20284;-78
2022/11/15 16:51:53;;;;;;;13.53;6.97;;;;;;;7.12;65.30;100610.78;31983288;27;20098;-77
2022/11/15 17:06:55;;;;;;;7.57;4.73;;;;;;;6.60;71.27;100603.28;31988917;27;20119;-78
2022/11/15 17:21:57;;;;;;;13.47;6.53;;;;;;;6.27;75.44;100609.66;32006008;27;20427;-78
2022/11/15 17:37:16;;;;;;;8.57;5.20;;;;;;;6.06;77.68;100589.50;31990513;27;20545;-77
2022/11/15 17:52:18;;;;;;;10.67;6.20;;;;;;;6.00;80.12;100568.66;32001027;27;20103;-78
2022/11/15 18:07:20;;;;;;;14.13;7.07;;;;;;;5.94;81.25;100564.78;31918285;27;20055;-78
2022/11/15 18:22:22;;;;;;;10.37;5.83;;;;;;;5.94;82.74;100535.13;31871804;27;20051;-80
2022/11/15 18:37:25;;;;;;;11.23;5.50;;;;;;;5.99;82.45;100529.41;31870302;27;20496;-77
2022/11/15 18:52:27;;;;;;;11.10;4.63;;;;;;;5.94;83.74;100524.34;31858257;27;20055;-78
2022/11/15 19:07:30;;;;;;;7.30;3.97;;;;;;;5.93;85.64;100507.41;31912899;27;20082;-77
2022/11/15 19:22:32;;;;;;;9.53;4.87;;;;;;;6.01;86.83;100470.50;32004468;27;20051;-78
2022/11/15 19:37:34;;;;;;;10.80;5.43;;;;;;;6.01;87.74;100465.09;31995033;27;20118;-78
2022/11/15 19:52:36;;;;;;;9.97;5.40;;;;;;;6.25;87.13;100440.19;31975054;27;20521;-78
2022/11/15 20:07:38;;;;;;;7.40;4.87;;;;;;;6.45;86.86;100419.03;32023861;27;20134;-78
2022/11/15 20:22:46;;;;;;;8.47;5.07;;;;;;;6.56;87.42;100402.88;32014816;27;20058;-77
2022/11/15 20:37:49;;;;;;;9.03;4.90;;;;;;;6.39;88.70;100372.03;32017746;27;20046;-77
2022/11/15 20:52:51;;;;;;;9.67;5.33;;;;;;;6.56;89.81;100365.91;32009059;27;20126;-77
2022/11/15 21:07:53;;;;;;;11.53;6.80;;;;;;;6.73;89.14;100375.16;31986487;27;20054;-76
2022/11/15 21:22:55;;;;;;;14.97;5.30;;;;;;;6.80;88.12;100353.56;32011014;27;20054;-77
2022/11/15 21:37:57;;;;;;;5.17;3.73;;;;;;;6.72;89.32;100325.03;31995229;27;20051;-76
2022/11/15 21:52:59;;;;;;;16.83;6.97;;;;;;;6.84;91.11;100305.78;31996815;27;20058;-78
2022/11/15 22:08:01;;;;;;;9.97;5.50;;;;;;;7.01;91.02;100283.38;32002783;27;20114;-77
2022/11/15 22:23:04;;;;;;;10.43;6.17;;;;;;;7.06;90.92;100264.09;32003624;27;20114;-78
2022/11/15 22:38:06;;;;;;;12.17;5.63;;;;;;;7.19;90.92;100230.09;31985795;27;20081;-75
2022/11/15 22:53:09;;;;;;;11.70;7.47;;;;;;;7.18;90.75;100225.84;31974823;27;20130;-78
2022/11/15 23:08:11;;;;;;;11.80;6.40;;;;;;;7.15;92.21;100221.22;32040405;27;20077;-77
2022/11/15 23:23:13;;;;;;;13.77;8.30;;;;;;;7.22;91.74;100195.38;32031127;27;20476;-77
2022/11/15 23:38:15;;;;;;;12.87;6.97;;;;;;;7.27;92.32;100176.06;32042867;27;20453;-77
2022/11/15 23:53:17;;;;;;;13.53;6.90;;;;;;;7.28;92.06;100177.59;32028722;27;20057;-78
